sensor_id;sensor_type;location;lat;lon;timestamp;pressure;altitude;pressure_sealevel;temperature;humidity
19114;BME280;9689;51.052;13.772;2023-05-07T00:03:47;100772.25;;;9.61;82.26
19114;BME280;9689;51.052;13.772;2023-05-07T00:08:48;100764.50;;;9.52;82.87
19114;BME280;9689;51.052;13.772;2023-05-07T00:13:49;100770.63;;;9.46;82.59
19114;BME280;9689;51.052;13.772;2023-05-07T00:18:52;100769.75;;;9.46;83.04
19114;BME280;9689;51.052;13.772;2023-05-07T00:23:52;100773.06;;;9.63;82.09
19114;BME280;9689;51.052;13.772;2023-05-07T00:28:53;100771.34;;;9.63;82.88
19114;BME280;9689;51.052;13.772;2023-05-07T00:33:55;100771.25;;;9.73;82.22
19114;BME280;9689;51.052;13.772;2023-05-07T00:38:57;100771.16;;;9.85;81.64
19114;BME280;9689;51.052;13.772;2023-05-07T00:43:59;100780.03;;;9.62;81.52
19114;BME280;9689;51.052;13.772;2023-05-07T00:49:02;100777.34;;;9.75;80.98
19114;BME280;9689;51.052;13.772;2023-05-07T00:54:03;100773.84;;;9.76;80.82
19114;BME280;9689;51.052;13.772;2023-05-07T00:59:05;100767.84;;;9.69;81.23
19114;BME280;9689;51.052;13.772;2023-05-07T01:04:07;100769.50;;;9.76;81.43
19114;BME280;9689;51.052;13.772;2023-05-07T01:09:08;100776.38;;;9.83;80.91
19114;BME280;9689;51.052;13.772;2023-05-07T01:14:09;100771.97;;;9.88;80.05
19114;BME280;9689;51.052;13.772;2023-05-07T01:19:12;100773.69;;;9.93;79.89
19114;BME280;9689;51.052;13.772;2023-05-07T01:24:17;100783.25;;;9.90;80.84
19114;BME280;9689;51.052;13.772;2023-05-07T01:29:18;100778.91;;;9.93;79.87
19114;BME280;9689;51.052;13.772;2023-05-07T01:34:21;100786.69;;;9.94;80.17
19114;BME280;9689;51.052;13.772;2023-05-07T01:39:24;100779.75;;;9.95;79.70
19114;BME280;9689;51.052;13.772;2023-05-07T01:44:26;100784.09;;;9.93;79.65
19114;BME280;9689;51.052;13.772;2023-05-07T01:49:27;100784.13;;;9.91;79.52
19114;BME280;9689;51.052;13.772;2023-05-07T01:54:29;100788.38;;;9.97;78.79
19114;BME280;9689;51.052;13.772;2023-05-07T01:59:31;100782.38;;;9.93;78.32
19114;BME280;9689;51.052;13.772;2023-05-07T02:04:32;100787.69;;;9.82;78.70
19114;BME280;9689;51.052;13.772;2023-05-07T02:09:34;100787.59;;;9.88;78.21
19114;BME280;9689;51.052;13.772;2023-05-07T02:14:35;100785.91;;;9.86;78.69
19114;BME280;9689;51.052;13.772;2023-05-07T02:19:36;100786.72;;;9.93;78.89
19114;BME280;9689;51.052;13.772;2023-05-07T02:24:38;100795.38;;;9.90;78.35
19114;BME280;9689;51.052;13.772;2023-05-07T02:29:39;100798.94;;;9.83;78.53
19114;BME280;9689;51.052;13.772;2023-05-07T02:34:39;100798.97;;;9.78;78.50
19114;BME280;9689;51.052;13.772;2023-05-07T02:39:42;100803.25;;;9.87;78.63
19114;BME280;9689;51.052;13.772;2023-05-07T02:44:42;100798.03;;;9.87;78.69
19114;BME280;9689;51.052;13.772;2023-05-07T02:49:43;100800.75;;;9.75;78.56
19114;BME280;9689;51.052;13.772;2023-05-07T02:54:46;100799.91;;;9.74;79.13
19114;BME280;9689;51.052;13.772;2023-05-07T02:59:47;100799.91;;;9.71;79.00
19114;BME280;9689;51.052;13.772;2023-05-07T03:04:49;100807.72;;;9.71;79.28
19114;BME280;9689;51.052;13.772;2023-05-07T03:09:51;100802.75;;;9.38;79.49
19114;BME280;9689;51.052;13.772;2023-05-07T03:14:53;100800.97;;;9.49;79.59
19114;BME280;9689;51.052;13.772;2023-05-07T03:19:53;100801.81;;;9.49;79.70
19114;BME280;9689;51.052;13.772;2023-05-07T03:24:56;100813.91;;;9.55;80.07
19114;BME280;9689;51.052;13.772;2023-05-07T03:29:56;100810.50;;;9.45;80.43
19114;BME280;9689;51.052;13.772;2023-05-07T03:34:57;100816.69;;;9.32;80.73
19114;BME280;9689;51.052;13.772;2023-05-07T03:39:59;100810.59;;;9.36;81.44
19114;BME280;9689;51.052;13.772;2023-05-07T03:45:02;100819.31;;;9.27;81.63
19114;BME280;9689;51.052;13.772;2023-05-07T03:50:03;100825.28;;;9.42;80.94
19114;BME280;9689;51.052;13.772;2023-05-07T03:55:06;100824.44;;;9.40;81.19
19114;BME280;9689;51.052;13.772;2023-05-07T04:00:10;100821.84;;;9.35;81.09
19114;BME280;9689;51.052;13.772;2023-05-07T04:05:20;100825.28;;;9.42;81.26
19114;BME280;9689;51.052;13.772;2023-05-07T04:10:26;100825.28;;;9.42;81.58
19114;BME280;9689;51.052;13.772;2023-05-07T04:15:28;100829.59;;;9.47;81.44
19114;BME280;9689;51.052;13.772;2023-05-07T04:20:29;100828.72;;;9.50;81.36
19114;BME280;9689;51.052;13.772;2023-05-07T04:25:36;100838.19;;;9.55;80.47
19114;BME280;9689;51.052;13.772;2023-05-07T04:30:45;100828.50;;;9.76;79.94
19114;BME280;9689;51.052;13.772;2023-05-07T04:35:46;100852.59;;;9.98;78.66
19114;BME280;9689;51.052;13.772;2023-05-07T04:40:48;100844.75;;;10.04;77.33
19114;BME280;9689;51.052;13.772;2023-05-07T04:45:53;100853.47;;;9.98;77.43
19114;BME280;9689;51.052;13.772;2023-05-07T04:50:56;100863.97;;;9.87;77.61
19114;BME280;9689;51.052;13.772;2023-05-07T04:55:59;100867.56;;;9.74;77.95
19114;BME280;9689;51.052;13.772;2023-05-07T05:01:06;100874.41;;;9.84;77.89
19114;BME280;9689;51.052;13.772;2023-05-07T05:06:07;100877.06;;;9.78;78.51
19114;BME280;9689;51.052;13.772;2023-05-07T05:11:10;100881.47;;;9.73;78.20
19114;BME280;9689;51.052;13.772;2023-05-07T05:16:11;100869.19;;;9.90;77.98
19114;BME280;9689;51.052;13.772;2023-05-07T05:21:12;100886.66;;;9.75;78.26
19114;BME280;9689;51.052;13.772;2023-05-07T05:26:16;100881.31;;;9.88;78.22
19114;BME280;9689;51.052;13.772;2023-05-07T05:31:18;100882.97;;;10.02;77.78
19114;BME280;9689;51.052;13.772;2023-05-07T05:36:21;100892.50;;;10.01;76.63
19114;BME280;9689;51.052;13.772;2023-05-07T05:41:26;100904.78;;;9.85;77.23
19114;BME280;9689;51.052;13.772;2023-05-07T05:46:27;100901.25;;;9.94;77.51
19114;BME280;9689;51.052;13.772;2023-05-07T05:51:28;100910.81;;;9.87;77.18
19114;BME280;9689;51.052;13.772;2023-05-07T05:56:32;100912.53;;;9.95;77.29
19114;BME280;9689;51.052;13.772;2023-05-07T06:01:34;100924.53;;;10.11;74.70
19114;BME280;9689;51.052;13.772;2023-05-07T06:06:36;100918.38;;;10.26;73.90
19114;BME280;9689;51.052;13.772;2023-05-07T06:11:41;100926.88;;;10.46;74.07
19114;BME280;9689;51.052;13.772;2023-05-07T06:16:44;100931.91;;;10.64;73.51
19114;BME280;9689;51.052;13.772;2023-05-07T06:21:44;100931.06;;;10.59;72.28
19114;BME280;9689;51.052;13.772;2023-05-07T06:26:46;100940.31;;;10.89;71.31
19114;BME280;9689;51.052;13.772;2023-05-07T06:31:47;100936.97;;;10.78;71.16
19114;BME280;9689;51.052;13.772;2023-05-07T06:36:48;100933.56;;;10.71;71.27
19114;BME280;9689;51.052;13.772;2023-05-07T06:42:04;100932.97;;;10.43;73.17
19114;BME280;9689;51.052;13.772;2023-05-07T06:47:05;100938.13;;;10.48;73.45
19114;BME280;9689;51.052;13.772;2023-05-07T06:52:08;100954.59;;;10.55;73.87
19114;BME280;9689;51.052;13.772;2023-05-07T06:57:10;100956.34;;;10.51;74.27
19114;BME280;9689;51.052;13.772;2023-05-07T07:02:11;100946.78;;;10.50;73.11
19114;BME280;9689;51.052;13.772;2023-05-07T07:07:18;100973.00;;;10.35;73.68
19114;BME280;9689;51.052;13.772;2023-05-07T07:12:22;100961.91;;;10.08;75.34
19114;BME280;9689;51.052;13.772;2023-05-07T07:17:25;100948.75;;;10.27;74.65
19114;BME280;9689;51.052;13.772;2023-05-07T07:22:27;100963.28;;;10.51;73.70
19114;BME280;9689;51.052;13.772;2023-05-07T07:27:29;100958.69;;;10.80;70.28
19114;BME280;9689;51.052;13.772;2023-05-07T07:32:31;100964.44;;;11.08;70.05
19114;BME280;9689;51.052;13.772;2023-05-07T07:37:33;100967.13;;;11.00;69.58
19114;BME280;9689;51.052;13.772;2023-05-07T07:42:35;100975.84;;;10.99;69.28
19114;BME280;9689;51.052;13.772;2023-05-07T07:47:36;100972.78;;;11.38;70.92
19114;BME280;9689;51.052;13.772;2023-05-07T07:52:37;100978.00;;;11.39;69.08
19114;BME280;9689;51.052;13.772;2023-05-07T07:57:40;100985.34;;;11.07;68.85
19114;BME280;9689;51.052;13.772;2023-05-07T08:02:41;100986.25;;;11.04;69.71
19114;BME280;9689;51.052;13.772;2023-05-07T08:07:48;100991.50;;;10.98;70.02
19114;BME280;9689;51.052;13.772;2023-05-07T08:12:56;100991.16;;;11.30;71.95
19114;BME280;9689;51.052;13.772;2023-05-07T08:17:57;100994.31;;;11.56;70.76
19114;BME280;9689;51.052;13.772;2023-05-07T08:23:00;100995.25;;;11.49;69.07
19114;BME280;9689;51.052;13.772;2023-05-07T08:28:02;100997.72;;;11.60;70.02
19114;BME280;9689;51.052;13.772;2023-05-07T08:33:05;101003.75;;;11.64;66.86
19114;BME280;9689;51.052;13.772;2023-05-07T08:38:05;101001.63;;;11.27;68.61
19114;BME280;9689;51.052;13.772;2023-05-07T08:43:12;101001.22;;;11.59;67.62
19114;BME280;9689;51.052;13.772;2023-05-07T08:48:15;100999.22;;;11.81;66.05
19114;BME280;9689;51.052;13.772;2023-05-07T08:53:23;101007.34;;;11.55;66.73
19114;BME280;9689;51.052;13.772;2023-05-07T08:58:25;101012.88;;;11.32;67.77
19114;BME280;9689;51.052;13.772;2023-05-07T09:03:26;101013.44;;;11.57;67.70
19114;BME280;9689;51.052;13.772;2023-05-07T09:08:28;101010.94;;;11.46;68.95
19114;BME280;9689;51.052;13.772;2023-05-07T09:13:34;101016.25;;;12.08;66.95
19114;BME280;9689;51.052;13.772;2023-05-07T09:18:40;101023.00;;;12.21;64.62
19114;BME280;9689;51.052;13.772;2023-05-07T09:23:43;101018.25;;;11.91;65.76
19114;BME280;9689;51.052;13.772;2023-05-07T09:28:47;101029.78;;;11.73;65.26
19114;BME280;9689;51.052;13.772;2023-05-07T09:33:48;101030.94;;;12.15;64.84
19114;BME280;9689;51.052;13.772;2023-05-07T09:38:50;101024.78;;;12.21;64.01
19114;BME280;9689;51.052;13.772;2023-05-07T09:43:55;101019.59;;;12.18;65.19
19114;BME280;9689;51.052;13.772;2023-05-07T09:49:02;101022.75;;;12.38;62.90
19114;BME280;9689;51.052;13.772;2023-05-07T09:54:06;101031.16;;;12.57;61.33
19114;BME280;9689;51.052;13.772;2023-05-07T09:59:14;101033.00;;;12.50;62.35
19114;BME280;9689;51.052;13.772;2023-05-07T10:04:16;101031.13;;;12.03;63.84
19114;BME280;9689;51.052;13.772;2023-05-07T10:09:18;101029.22;;;12.14;63.66
19114;BME280;9689;51.052;13.772;2023-05-07T10:14:21;101026.56;;;12.71;62.13
19114;BME280;9689;51.052;13.772;2023-05-07T10:19:23;101025.78;;;12.66;61.25
19114;BME280;9689;51.052;13.772;2023-05-07T10:24:30;101026.03;;;13.00;61.10
19114;BME280;9689;51.052;13.772;2023-05-07T10:29:45;101021.06;;;13.34;59.25
19114;BME280;9689;51.052;13.772;2023-05-07T10:34:53;101021.22;;;13.26;59.99
19114;BME280;9689;51.052;13.772;2023-05-07T10:39:55;101015.97;;;12.79;60.30
19114;BME280;9689;51.052;13.772;2023-05-07T10:45:12;101018.63;;;12.77;61.27
19114;BME280;9689;51.052;13.772;2023-05-07T10:50:20;101011.25;;;12.99;61.15
19114;BME280;9689;51.052;13.772;2023-05-07T10:55:26;101006.06;;;13.84;56.50
19114;BME280;9689;51.052;13.772;2023-05-07T11:00:58;100998.38;;;14.13;56.18
19114;BME280;9689;51.052;13.772;2023-05-07T11:06:09;101000.38;;;14.39;55.83
19114;BME280;9689;51.052;13.772;2023-05-07T11:11:46;101003.81;;;14.41;55.20
19114;BME280;9689;51.052;13.772;2023-05-07T11:17:14;100998.69;;;14.37;55.50
19114;BME280;9689;51.052;13.772;2023-05-07T11:22:36;100998.63;;;14.03;55.31
19114;BME280;9689;51.052;13.772;2023-05-07T11:27:48;101000.69;;;14.27;58.12
19114;BME280;9689;51.052;13.772;2023-05-07T11:32:50;101003.41;;;13.85;56.94
19114;BME280;9689;51.052;13.772;2023-05-07T11:37:57;101000.28;;;14.07;58.55
19114;BME280;9689;51.052;13.772;2023-05-07T11:43:10;101002.59;;;13.82;61.35
19114;BME280;9689;51.052;13.772;2023-05-07T11:48:12;101000.25;;;14.08;60.21
19114;BME280;9689;51.052;13.772;2023-05-07T11:53:13;101008.53;;;14.27;61.45
19114;BME280;9689;51.052;13.772;2023-05-07T11:58:21;100996.41;;;14.23;57.95
19114;BME280;9689;51.052;13.772;2023-05-07T12:03:23;101001.06;;;14.48;56.27
19114;BME280;9689;51.052;13.772;2023-05-07T12:08:26;101003.31;;;14.27;55.79
19114;BME280;9689;51.052;13.772;2023-05-07T12:13:26;100997.56;;;14.83;55.46
19114;BME280;9689;51.052;13.772;2023-05-07T12:18:29;100994.31;;;15.37;54.05
19114;BME280;9689;51.052;13.772;2023-05-07T12:23:31;100999.13;;;15.52;52.67
19114;BME280;9689;51.052;13.772;2023-05-07T12:28:36;101009.94;;;15.10;53.48
19114;BME280;9689;51.052;13.772;2023-05-07T12:33:39;101002.19;;;14.73;55.15
19114;BME280;9689;51.052;13.772;2023-05-07T12:38:40;101022.09;;;14.46;54.61
19114;BME280;9689;51.052;13.772;2023-05-07T12:43:44;101012.00;;;14.65;55.39
19114;BME280;9689;51.052;13.772;2023-05-07T12:48:48;101008.97;;;15.44;52.70
19114;BME280;9689;51.052;13.772;2023-05-07T12:53:49;100990.44;;;15.50;52.87
19114;BME280;9689;51.052;13.772;2023-05-07T12:58:50;100999.09;;;16.11;51.12
19114;BME280;9689;51.052;13.772;2023-05-07T13:03:52;100991.41;;;16.05;50.75
19114;BME280;9689;51.052;13.772;2023-05-07T13:08:53;100999.06;;;15.55;53.26
19114;BME280;9689;51.052;13.772;2023-05-07T13:13:54;100986.72;;;15.57;51.92
19114;BME280;9689;51.052;13.772;2023-05-07T13:18:56;100983.41;;;15.81;51.06
19114;BME280;9689;51.052;13.772;2023-05-07T13:23:57;100976.88;;;15.65;51.33
19114;BME280;9689;51.052;13.772;2023-05-07T13:28:58;100986.34;;;15.99;50.78
19114;BME280;9689;51.052;13.772;2023-05-07T13:34:00;100975.78;;;16.00;51.22
19114;BME280;9689;51.052;13.772;2023-05-07T13:39:01;100974.81;;;15.75;50.27
19114;BME280;9689;51.052;13.772;2023-05-07T13:44:01;100983.56;;;16.03;49.99
19114;BME280;9689;51.052;13.772;2023-05-07T13:49:04;100970.16;;;15.53;51.97
19114;BME280;9689;51.052;13.772;2023-05-07T13:54:04;100959.63;;;15.85;51.24
19114;BME280;9689;51.052;13.772;2023-05-07T13:59:05;100977.00;;;15.61;51.16
19114;BME280;9689;51.052;13.772;2023-05-07T14:04:07;100966.91;;;15.76;51.16
19114;BME280;9689;51.052;13.772;2023-05-07T14:09:08;100978.44;;;15.41;52.33
19114;BME280;9689;51.052;13.772;2023-05-07T14:14:11;100970.00;;;15.30;53.83
19114;BME280;9689;51.052;13.772;2023-05-07T14:19:13;100970.75;;;15.34;51.82
19114;BME280;9689;51.052;13.772;2023-05-07T14:24:14;100967.13;;;15.08;52.29
19114;BME280;9689;51.052;13.772;2023-05-07T14:29:33;100968.22;;;14.99;52.20
19114;BME280;9689;51.052;13.772;2023-05-07T14:34:36;100966.84;;;15.48;51.88
19114;BME280;9689;51.052;13.772;2023-05-07T14:39:37;100975.63;;;15.77;51.33
19114;BME280;9689;51.052;13.772;2023-05-07T14:44:38;100959.22;;;15.39;51.76
19114;BME280;9689;51.052;13.772;2023-05-07T14:49:41;100964.38;;;15.13;52.50
19114;BME280;9689;51.052;13.772;2023-05-07T14:54:42;100953.41;;;15.28;52.59
19114;BME280;9689;51.052;13.772;2023-05-07T14:59:43;100968.53;;;15.20;52.53
19114;BME280;9689;51.052;13.772;2023-05-07T15:04:45;100969.41;;;14.55;53.99
19114;BME280;9689;51.052;13.772;2023-05-07T15:09:46;100981.00;;;14.81;54.22
19114;BME280;9689;51.052;13.772;2023-05-07T15:14:46;100966.78;;;14.55;54.78
19114;BME280;9689;51.052;13.772;2023-05-07T15:19:48;100975.75;;;14.47;54.84
19114;BME280;9689;51.052;13.772;2023-05-07T15:24:52;100984.28;;;14.19;55.34
19114;BME280;9689;51.052;13.772;2023-05-07T15:29:54;100981.38;;;14.30;54.51
19114;BME280;9689;51.052;13.772;2023-05-07T15:34:56;100993.47;;;14.00;55.38
19114;BME280;9689;51.052;13.772;2023-05-07T15:39:57;100988.75;;;14.14;54.89
19114;BME280;9689;51.052;13.772;2023-05-07T15:44:58;100999.53;;;14.02;56.72
19114;BME280;9689;51.052;13.772;2023-05-07T15:50:01;101004.47;;;13.77;56.57
19114;BME280;9689;51.052;13.772;2023-05-07T15:55:02;101006.91;;;13.84;57.17
19114;BME280;9689;51.052;13.772;2023-05-07T16:00:04;101006.28;;;13.73;57.27
19114;BME280;9689;51.052;13.772;2023-05-07T16:05:12;101007.94;;;13.77;58.85
19114;BME280;9689;51.052;13.772;2023-05-07T16:10:13;101009.78;;;13.72;57.13
19114;BME280;9689;51.052;13.772;2023-05-07T16:15:14;100993.91;;;13.81;58.20
19114;BME280;9689;51.052;13.772;2023-05-07T16:20:16;101005.81;;;13.95;58.70
19114;BME280;9689;51.052;13.772;2023-05-07T16:25:20;100995.84;;;14.10;56.78
19114;BME280;9689;51.052;13.772;2023-05-07T16:30:21;101003.88;;;13.64;57.75
19114;BME280;9689;51.052;13.772;2023-05-07T16:35:23;101016.78;;;13.73;59.20
19114;BME280;9689;51.052;13.772;2023-05-07T16:40:24;101011.31;;;13.42;59.30
19114;BME280;9689;51.052;13.772;2023-05-07T16:45:25;101004.41;;;13.38;58.43
19114;BME280;9689;51.052;13.772;2023-05-07T16:50:30;101009.34;;;13.07;58.29
19114;BME280;9689;51.052;13.772;2023-05-07T16:55:31;101026.06;;;13.45;58.13
19114;BME280;9689;51.052;13.772;2023-05-07T17:00:38;101010.63;;;13.33;57.67
19114;BME280;9689;51.052;13.772;2023-05-07T17:05:43;101017.72;;;14.47;54.71
19114;BME280;9689;51.052;13.772;2023-05-07T17:10:44;101023.88;;;14.46;53.92
19114;BME280;9689;51.052;13.772;2023-05-07T17:15:45;101019.03;;;15.61;50.62
19114;BME280;9689;51.052;13.772;2023-05-07T17:20:48;101023.91;;;15.12;50.34
19114;BME280;9689;51.052;13.772;2023-05-07T17:25:49;101027.97;;;15.53;50.00
19114;BME280;9689;51.052;13.772;2023-05-07T17:30:49;101041.47;;;15.09;51.08
19114;BME280;9689;51.052;13.772;2023-05-07T17:35:52;101039.69;;;14.77;50.33
19114;BME280;9689;51.052;13.772;2023-05-07T17:40:54;101045.50;;;14.15;52.03
19114;BME280;9689;51.052;13.772;2023-05-07T17:45:54;101049.78;;;13.80;53.47
19114;BME280;9689;51.052;13.772;2023-05-07T17:51:00;101050.50;;;12.47;57.54
19114;BME280;9689;51.052;13.772;2023-05-07T17:56:04;101046.66;;;12.13;58.68
19114;BME280;9689;51.052;13.772;2023-05-07T18:01:05;101065.56;;;11.65;60.15
19114;BME280;9689;51.052;13.772;2023-05-07T18:06:07;101065.63;;;11.58;60.76
19114;BME280;9689;51.052;13.772;2023-05-07T18:11:08;101069.53;;;11.21;61.84
19114;BME280;9689;51.052;13.772;2023-05-07T18:16:09;101079.00;;;11.31;64.40
19114;BME280;9689;51.052;13.772;2023-05-07T18:21:12;101094.88;;;11.08;62.63
19114;BME280;9689;51.052;13.772;2023-05-07T18:26:17;101098.66;;;10.72;63.91
19114;BME280;9689;51.052;13.772;2023-05-07T18:31:17;101105.78;;;10.48;63.78
19114;BME280;9689;51.052;13.772;2023-05-07T18:36:20;101097.25;;;10.14;65.19
19114;BME280;9689;51.052;13.772;2023-05-07T18:41:23;101109.44;;;10.12;65.38
19114;BME280;9689;51.052;13.772;2023-05-07T18:46:24;101116.41;;;10.06;65.22
19114;BME280;9689;51.052;13.772;2023-05-07T18:51:26;101119.13;;;9.78;66.40
19114;BME280;9689;51.052;13.772;2023-05-07T18:56:27;101137.34;;;9.72;66.91
19114;BME280;9689;51.052;13.772;2023-05-07T19:01:28;101131.34;;;9.66;67.74
19114;BME280;9689;51.052;13.772;2023-05-07T19:06:30;101140.91;;;9.57;68.04
19114;BME280;9689;51.052;13.772;2023-05-07T19:11:32;101133.09;;;9.56;68.60
19114;BME280;9689;51.052;13.772;2023-05-07T19:16:33;101127.91;;;9.42;69.32
19114;BME280;9689;51.052;13.772;2023-05-07T19:21:35;101134.84;;;9.37;68.56
19114;BME280;9689;51.052;13.772;2023-05-07T19:26:36;101145.28;;;9.32;69.20
19114;BME280;9689;51.052;13.772;2023-05-07T19:31:38;101152.22;;;9.20;69.81
19114;BME280;9689;51.052;13.772;2023-05-07T19:36:40;101151.34;;;9.21;69.38
19114;BME280;9689;51.052;13.772;2023-05-07T19:41:40;101153.97;;;9.09;69.53
19114;BME280;9689;51.052;13.772;2023-05-07T19:46:41;101160.88;;;9.10;70.09
19114;BME280;9689;51.052;13.772;2023-05-07T19:51:45;101171.31;;;8.96;70.42
19114;BME280;9689;51.052;13.772;2023-05-07T19:56:46;101179.94;;;8.93;70.08
19114;BME280;9689;51.052;13.772;2023-05-07T20:01:47;101186.88;;;8.90;70.60
19114;BME280;9689;51.052;13.772;2023-05-07T20:06:49;101187.75;;;8.81;70.76
19114;BME280;9689;51.052;13.772;2023-05-07T20:11:49;101202.47;;;8.81;70.69
19114;BME280;9689;51.052;13.772;2023-05-07T20:16:50;101202.44;;;8.74;70.91
19114;BME280;9689;51.052;13.772;2023-05-07T20:21:52;101211.97;;;8.60;70.79
19114;BME280;9689;51.052;13.772;2023-05-07T20:26:53;101213.69;;;8.67;70.12
19114;BME280;9689;51.052;13.772;2023-05-07T20:31:54;101211.09;;;8.64;69.97
19114;BME280;9689;51.052;13.772;2023-05-07T20:36:56;101222.31;;;8.59;69.66
19114;BME280;9689;51.052;13.772;2023-05-07T20:41:57;101216.28;;;8.63;69.85
19114;BME280;9689;51.052;13.772;2023-05-07T20:46:58;101230.16;;;8.68;69.54
19114;BME280;9689;51.052;13.772;2023-05-07T20:52:00;101227.59;;;8.80;69.19
19114;BME280;9689;51.052;13.772;2023-05-07T20:57:01;101229.34;;;8.92;68.12
19114;BME280;9689;51.052;13.772;2023-05-07T21:02:02;101226.75;;;8.89;67.89
19114;BME280;9689;51.052;13.772;2023-05-07T21:07:04;101230.19;;;8.83;67.87
19114;BME280;9689;51.052;13.772;2023-05-07T21:12:05;101226.75;;;8.89;67.54
19114;BME280;9689;51.052;13.772;2023-05-07T21:17:06;101234.50;;;8.76;67.58
19114;BME280;9689;51.052;13.772;2023-05-07T21:22:08;101223.19;;;8.59;67.61
19114;BME280;9689;51.052;13.772;2023-05-07T21:27:09;101225.66;;;8.33;68.27
19114;BME280;9689;51.052;13.772;2023-05-07T21:32:11;101237.78;;;8.30;68.13
19114;BME280;9689;51.052;13.772;2023-05-07T21:37:13;101235.16;;;8.20;68.02
19114;BME280;9689;51.052;13.772;2023-05-07T21:42:14;101237.75;;;8.22;67.96
19114;BME280;9689;51.052;13.772;2023-05-07T21:47:15;101246.31;;;8.04;69.25
19114;BME280;9689;51.052;13.772;2023-05-07T21:52:17;101241.13;;;8.04;68.63
19114;BME280;9689;51.052;13.772;2023-05-07T21:57:17;101249.72;;;7.99;69.12
19114;BME280;9689;51.052;13.772;2023-05-07T22:02:18;101250.53;;;7.87;68.84
19114;BME280;9689;51.052;13.772;2023-05-07T22:07:20;101264.31;;;7.81;69.36
19114;BME280;9689;51.052;13.772;2023-05-07T22:12:21;101261.72;;;7.75;69.73
19114;BME280;9689;51.052;13.772;2023-05-07T22:17:22;101253.06;;;7.78;69.80
19114;BME280;9689;51.052;13.772;2023-05-07T22:22:24;101251.28;;;7.72;69.70
19114;BME280;9689;51.052;13.772;2023-05-07T22:27:25;101255.53;;;7.61;69.91
19114;BME280;9689;51.052;13.772;2023-05-07T22:32:25;101254.75;;;7.70;70.40
19114;BME280;9689;51.052;13.772;2023-05-07T22:37:27;101247.81;;;7.69;69.76
19114;BME280;9689;51.052;13.772;2023-05-07T22:42:28;101249.50;;;7.63;69.92
19114;BME280;9689;51.052;13.772;2023-05-07T22:47:29;101255.53;;;7.61;69.98
19114;BME280;9689;51.052;13.772;2023-05-07T22:52:31;101252.88;;;7.49;70.66
19114;BME280;9689;51.052;13.772;2023-05-07T22:57:32;101253.75;;;7.49;71.21
19114;BME280;9689;51.052;13.772;2023-05-07T23:02:33;101253.66;;;7.40;71.32
19114;BME280;9689;51.052;13.772;2023-05-07T23:07:35;101251.94;;;7.42;71.01
19114;BME280;9689;51.052;13.772;2023-05-07T23:12:36;101254.53;;;7.44;71.29
19114;BME280;9689;51.052;13.772;2023-05-07T23:17:36;101250.31;;;7.55;70.39
19114;BME280;9689;51.052;13.772;2023-05-07T23:22:38;101248.63;;;7.60;70.37
19114;BME280;9689;51.052;13.772;2023-05-07T23:27:39;101243.56;;;7.80;70.19
19114;BME280;9689;51.052;13.772;2023-05-07T23:32:40;101252.25;;;7.86;69.59
19114;BME280;9689;51.052;13.772;2023-05-07T23:37:42;101249.66;;;7.85;69.59
19114;BME280;9689;51.052;13.772;2023-05-07T23:42:43;101249.63;;;7.77;69.96
19114;BME280;9689;51.052;13.772;2023-05-07T23:47:43;101250.34;;;7.61;70.36
19114;BME280;9689;51.052;13.772;2023-05-07T23:52:46;101253.69;;;7.46;71.52
19114;BME280;9689;51.052;13.772;2023-05-07T23:57:46;101238.91;;;7.33;71.88
